createdAt,value
2023-01-26T00:00:01.629Z,-1.59
2023-01-26T00:02:03.178Z,-1.62
2023-01-26T00:04:04.803Z,-1.64
2023-01-26T00:06:08.063Z,-1.62
2023-01-26T00:08:10.061Z,-1.58
2023-01-26T00:10:12.665Z,-1.58
2023-01-26T00:12:14.330Z,-1.58
2023-01-26T00:14:15.787Z,-1.60
2023-01-26T00:16:17.333Z,-1.60
2023-01-26T00:18:18.872Z,-1.61
2023-01-26T00:20:20.350Z,-1.62
2023-01-26T00:22:22.566Z,-1.57
2023-01-26T00:24:24.127Z,-1.53
2023-01-26T00:26:26.953Z,-1.55
2023-01-26T00:28:29.096Z,-1.56
2023-01-26T00:30:30.578Z,-1.55
2023-01-26T00:32:32.020Z,-1.60
2023-01-26T00:34:33.467Z,-1.61
2023-01-26T00:36:37.640Z,-1.62
2023-01-26T00:38:39.980Z,-1.66
2023-01-26T00:40:41.446Z,-1.67
2023-01-26T00:42:42.883Z,-1.65
2023-01-26T00:44:44.782Z,-1.59
2023-01-26T00:46:46.316Z,-1.55
2023-01-26T00:48:47.750Z,-1.55
2023-01-26T00:50:51.117Z,-1.51
2023-01-26T00:52:53.865Z,-1.51
2023-01-26T00:54:55.341Z,-1.50
2023-01-26T00:56:56.953Z,-1.50
2023-01-26T00:58:58.403Z,-1.50
2023-01-26T01:00:59.908Z,-1.54
2023-01-26T01:03:01.980Z,-1.57
2023-01-26T01:05:03.800Z,-1.60
2023-01-26T01:07:05.665Z,-1.58
2023-01-26T01:09:07.255Z,-1.50
2023-01-26T01:11:11.225Z,-1.46
2023-01-26T01:13:12.676Z,-1.45
2023-01-26T01:15:14.429Z,-1.44
2023-01-26T01:17:15.895Z,-1.46
2023-01-26T01:19:18.473Z,-1.48
2023-01-26T01:21:20.295Z,-1.49
2023-01-26T01:23:21.940Z,-1.49
2023-01-26T01:25:23.372Z,-1.47
2023-01-26T01:27:25.201Z,-1.46
2023-01-26T01:29:26.717Z,-1.44
2023-01-26T01:31:29.410Z,-1.45
2023-01-26T01:33:30.992Z,-1.46
2023-01-26T01:35:34.479Z,-1.45
2023-01-26T01:37:36.874Z,-1.44
2023-01-26T01:39:38.374Z,-1.44
2023-01-26T01:41:39.880Z,-1.44
2023-01-26T01:43:41.875Z,-1.41
2023-01-26T01:45:47.805Z,-1.37
2023-01-26T01:47:49.333Z,-1.37
2023-01-26T01:49:52.948Z,-1.39
2023-01-26T01:51:59.849Z,-1.41
2023-01-26T01:54:07.829Z,-1.43
2023-01-26T01:56:15.665Z,-1.46
2023-01-26T01:58:17.247Z,-1.46
2023-01-26T02:00:21.651Z,-1.46
2023-01-26T02:02:23.200Z,-1.48
2023-01-26T02:04:25.395Z,-1.47
2023-01-26T02:06:33.254Z,-1.42
2023-01-26T02:08:39.005Z,-1.40
2023-01-26T02:10:42.225Z,-1.36
2023-01-26T02:12:44.405Z,-1.36
2023-01-26T02:14:46.483Z,-1.34
2023-01-26T02:16:47.932Z,-1.32
2023-01-26T02:18:49.623Z,-1.32
2023-01-26T02:20:55.241Z,-1.30
2023-01-26T02:23:20.768Z,-1.29
2023-01-26T02:25:37.147Z,-1.29
2023-01-26T02:27:38.991Z,-1.28
2023-01-26T02:29:41.901Z,-1.32
2023-01-26T02:31:43.798Z,-1.31
2023-01-26T02:33:45.604Z,-1.30
2023-01-26T02:35:47.105Z,-1.32
2023-01-26T02:37:48.572Z,-1.33
2023-01-26T02:40:15.545Z,-1.31
2023-01-26T02:42:35.692Z,-1.34
2023-01-26T02:44:38.465Z,-1.35
2023-01-26T02:46:40.034Z,-1.36
2023-01-26T02:49:00.306Z,-1.35
2023-01-26T02:51:01.791Z,-1.29
2023-01-26T02:53:04.010Z,-1.30
2023-01-26T02:55:25.181Z,-1.29
2023-01-26T02:57:27.198Z,-1.26
2023-01-26T02:59:28.843Z,-1.22
2023-01-26T03:01:32.488Z,-1.19
2023-01-26T03:03:42.796Z,-1.18
2023-01-26T03:05:44.689Z,-1.17
2023-01-26T03:07:46.180Z,-1.14
2023-01-26T03:09:47.683Z,-1.13
2023-01-26T03:11:49.307Z,-1.14
2023-01-26T03:13:50.775Z,-1.14
2023-01-26T03:15:55.125Z,-1.13
2023-01-26T03:18:33.618Z,-1.10
2023-01-26T03:20:53.759Z,-1.08
2023-01-26T03:23:14.588Z,-1.09
2023-01-26T03:25:34.373Z,-1.12
2023-01-26T03:27:42.636Z,-1.10
2023-01-26T03:29:44.748Z,-1.12
2023-01-26T03:31:46.283Z,-1.13
2023-01-26T03:33:47.738Z,-1.12
2023-01-26T03:35:52.193Z,-1.09
2023-01-26T03:37:54.873Z,-1.08
2023-01-26T03:40:14.952Z,-1.07
2023-01-26T03:42:35.289Z,-1.06
2023-01-26T03:44:55.096Z,-1.02
2023-01-26T03:47:14.958Z,-1.02
2023-01-26T03:49:34.813Z,-1.03
2023-01-26T03:51:55.167Z,-1.02
2023-01-26T03:54:14.774Z,-1.00
2023-01-26T03:56:20.011Z,-1.00
2023-01-26T03:58:21.453Z,-0.99
2023-01-26T04:00:22.953Z,-0.98
2023-01-26T04:02:42.970Z,-0.99
2023-01-26T04:05:02.741Z,-1.00
2023-01-26T04:07:22.567Z,-0.99
2023-01-26T04:09:24.108Z,-1.00
2023-01-26T04:11:25.552Z,-1.00
2023-01-26T04:13:45.649Z,-0.98
2023-01-26T04:16:08.492Z,-0.93
2023-01-26T04:18:28.490Z,-0.92
2023-01-26T04:20:48.320Z,-0.96
2023-01-26T04:22:49.799Z,-0.97
2023-01-26T04:24:51.360Z,-0.97
2023-01-26T04:26:52.851Z,-0.97
2023-01-26T04:28:54.332Z,-0.97
2023-01-26T04:30:55.772Z,-0.96
2023-01-26T04:32:57.226Z,-0.96
2023-01-26T04:34:58.752Z,-0.95
2023-01-26T04:37:00.179Z,-0.92
2023-01-26T04:39:01.947Z,-0.93
2023-01-26T04:41:03.554Z,-0.90
2023-01-26T04:43:05.053Z,-0.88
2023-01-26T04:45:06.990Z,-0.87
2023-01-26T04:47:08.481Z,-0.86
2023-01-26T04:49:10.319Z,-0.85
2023-01-26T04:51:14.443Z,-0.83
2023-01-26T04:53:15.905Z,-0.82
2023-01-26T04:55:17.366Z,-0.82
2023-01-26T04:57:23.237Z,-0.82
2023-01-26T04:59:24.774Z,-0.80
2023-01-26T05:01:26.519Z,-0.76
2023-01-26T05:03:28.097Z,-0.72
2023-01-26T05:05:29.551Z,-0.68
2023-01-26T05:07:31.063Z,-0.66
2023-01-26T05:09:32.637Z,-0.69
2023-01-26T05:11:34.123Z,-0.73
2023-01-26T05:13:36.036Z,-0.75
2023-01-26T05:15:37.987Z,-0.76
2023-01-26T05:17:39.434Z,-0.76
2023-01-26T05:19:40.981Z,-0.74
2023-01-26T05:21:42.429Z,-0.73
2023-01-26T05:23:43.898Z,-0.68
2023-01-26T05:25:45.360Z,-0.66
2023-01-26T05:27:47.318Z,-0.66
2023-01-26T05:29:49.829Z,-0.65
2023-01-26T05:31:51.360Z,-0.64
2023-01-26T05:33:52.889Z,-0.61
2023-01-26T05:35:54.579Z,-0.61
2023-01-26T05:37:56.361Z,-0.59
2023-01-26T05:39:57.863Z,-0.58
2023-01-26T05:41:59.368Z,-0.56
2023-01-26T05:44:00.836Z,-0.57
2023-01-26T05:46:02.899Z,-0.56
2023-01-26T05:48:04.548Z,-0.56
2023-01-26T05:50:06.954Z,-0.56
2023-01-26T05:52:26.384Z,-0.55
2023-01-26T05:54:27.897Z,-0.54
2023-01-26T05:56:29.354Z,-0.51
2023-01-26T05:58:30.810Z,-0.47
2023-01-26T06:00:32.325Z,-0.44
2023-01-26T06:02:33.881Z,-0.46
2023-01-26T06:04:35.424Z,-0.46
2023-01-26T06:06:36.890Z,-0.45
2023-01-26T06:08:38.325Z,-0.45
2023-01-26T06:10:41.219Z,-0.45
2023-01-26T06:12:43.108Z,-0.44
2023-01-26T06:14:47.220Z,-0.43
2023-01-26T06:16:49.121Z,-0.44
2023-01-26T06:18:50.587Z,-0.44
2023-01-26T06:20:52.054Z,-0.45
2023-01-26T06:22:53.549Z,-0.45
2023-01-26T06:24:55.119Z,-0.45
2023-01-26T06:26:56.593Z,-0.45
2023-01-26T06:28:58.083Z,-0.42
2023-01-26T06:31:01.159Z,-0.41
2023-01-26T06:33:02.781Z,-0.41
2023-01-26T06:35:07.130Z,-0.43
2023-01-26T06:37:08.939Z,-0.42
2023-01-26T06:39:12.245Z,-0.43
2023-01-26T06:41:14.482Z,-0.41
2023-01-26T06:43:15.970Z,-0.41
2023-01-26T06:45:18.182Z,-0.40
2023-01-26T06:47:19.706Z,-0.40
2023-01-26T06:49:21.151Z,-0.40
2023-01-26T06:51:44.266Z,-0.36
2023-01-26T06:53:53.326Z,-0.36
2023-01-26T06:55:54.839Z,-0.36
2023-01-26T06:57:56.309Z,-0.35
2023-01-26T06:59:57.983Z,-0.34
2023-01-26T07:01:59.499Z,-0.30
2023-01-26T07:04:00.953Z,-0.25
2023-01-26T07:06:02.482Z,-0.23
2023-01-26T07:08:06.403Z,-0.22
2023-01-26T07:10:08.804Z,-0.23
2023-01-26T07:12:10.523Z,-0.22
2023-01-26T07:14:11.982Z,-0.23
2023-01-26T07:16:15.347Z,-0.21
2023-01-26T07:18:16.925Z,-0.21
2023-01-26T07:20:18.526Z,-0.22
2023-01-26T07:22:19.995Z,-0.20
2023-01-26T07:24:21.944Z,-0.16
2023-01-26T07:26:23.696Z,-0.16
2023-01-26T07:28:25.959Z,-0.15
2023-01-26T07:30:27.452Z,-0.15
2023-01-26T07:32:28.921Z,-0.17
2023-01-26T07:34:30.385Z,-0.19
2023-01-26T07:36:31.979Z,-0.20
2023-01-26T07:38:34.444Z,-0.15
2023-01-26T07:40:35.914Z,-0.14
2023-01-26T07:42:37.449Z,-0.11
2023-01-26T07:44:38.932Z,-0.08
2023-01-26T07:46:41.425Z,-0.07
2023-01-26T07:48:43.415Z,-0.07
2023-01-26T07:50:47.258Z,-0.09
2023-01-26T07:52:49.130Z,-0.05
2023-01-26T07:54:51.500Z,-0.01
2023-01-26T07:56:54.564Z,0.01
2023-01-26T07:58:56.051Z,0.02
2023-01-26T08:01:06.900Z,-0.02
2023-01-26T08:03:08.450Z,-0.06
2023-01-26T08:05:10.228Z,-0.04
2023-01-26T08:07:11.684Z,-0.01
2023-01-26T08:09:13.411Z,0.01
2023-01-26T08:11:14.864Z,0.01
2023-01-26T08:13:23.548Z,-0.02
2023-01-26T08:15:28.640Z,-0.04
2023-01-26T08:17:30.661Z,0.01
2023-01-26T08:19:32.182Z,0.01
2023-01-26T08:21:33.661Z,0.00
2023-01-26T08:23:35.449Z,0.00
2023-01-26T08:25:36.960Z,0.03
2023-01-26T08:27:38.403Z,0.03
2023-01-26T08:29:40.006Z,0.03
2023-01-26T08:31:41.500Z,0.03
2023-01-26T08:33:43.540Z,0.06
2023-01-26T08:35:45.047Z,0.09
2023-01-26T08:37:46.547Z,0.13
2023-01-26T08:39:48.001Z,0.12
2023-01-26T08:41:49.479Z,0.15
2023-01-26T08:43:51.260Z,0.15
2023-01-26T08:45:52.770Z,0.15
2023-01-26T08:47:54.267Z,0.17
2023-01-26T08:49:55.796Z,0.17
2023-01-26T08:51:57.273Z,0.16
2023-01-26T08:53:58.708Z,0.17
2023-01-26T08:56:04.995Z,0.22
2023-01-26T08:58:06.440Z,0.24
2023-01-26T09:00:08.780Z,0.22
2023-01-26T09:02:11.164Z,0.26
2023-01-26T09:04:12.644Z,0.27
2023-01-26T09:06:15.785Z,0.25
2023-01-26T09:08:17.320Z,0.24
2023-01-26T09:10:18.944Z,0.22
2023-01-26T09:12:20.435Z,0.25
2023-01-26T09:14:22.596Z,0.30
2023-01-26T09:16:24.965Z,0.30
2023-01-26T09:18:26.508Z,0.30
2023-01-26T09:20:28.800Z,0.34
2023-01-26T09:22:30.765Z,0.35
2023-01-26T09:24:32.310Z,0.35
2023-01-26T09:26:33.831Z,0.36
2023-01-26T09:28:35.343Z,0.41
2023-01-26T09:30:36.891Z,0.44
2023-01-26T09:32:38.461Z,0.46
2023-01-26T09:34:39.948Z,0.49
2023-01-26T09:36:41.612Z,0.48
2023-01-26T09:38:43.103Z,0.47
2023-01-26T09:41:06.470Z,0.42
2023-01-26T09:43:42.916Z,0.45
2023-01-26T09:46:06.193Z,0.49
2023-01-26T09:48:56.127Z,0.50
2023-01-26T09:51:07.442Z,0.53
2023-01-26T09:53:16.825Z,0.54
2023-01-26T09:55:21.866Z,0.56
2023-01-26T09:57:32.585Z,0.52
2023-01-26T09:59:43.146Z,0.53
2023-01-26T10:02:01.845Z,0.57
2023-01-26T10:04:06.091Z,0.59
2023-01-26T10:06:29.078Z,0.56
2023-01-26T10:08:30.803Z,0.56
2023-01-26T10:10:36.448Z,0.59
2023-01-26T10:12:38.369Z,0.64
2023-01-26T10:14:45.382Z,0.70
2023-01-26T10:16:49.884Z,0.75
2023-01-26T10:18:59.344Z,0.78
2023-01-26T10:21:04.099Z,0.78
2023-01-26T10:23:22.156Z,0.79
2023-01-26T10:25:30.041Z,0.82
2023-01-26T10:27:31.505Z,0.84
2023-01-26T10:29:32.950Z,0.84
2023-01-26T10:31:34.560Z,0.87
2023-01-26T10:33:38.039Z,0.84
2023-01-26T10:35:39.517Z,0.84
2023-01-26T10:37:40.996Z,0.86
2023-01-26T10:40:12.162Z,0.90
2023-01-26T10:42:19.083Z,0.93
2023-01-26T10:44:31.917Z,0.96
2023-01-26T10:46:38.454Z,0.98
2023-01-26T10:48:51.133Z,1.01
2023-01-26T10:50:53.683Z,1.06
2023-01-26T10:53:03.390Z,1.12
2023-01-26T10:55:20.827Z,1.12
2023-01-26T10:57:24.976Z,1.13
2023-01-26T10:59:32.526Z,1.10
2023-01-26T11:01:52.468Z,1.06
2023-01-26T11:04:07.148Z,1.08
2023-01-26T11:06:16.987Z,1.12
2023-01-26T11:08:34.599Z,1.20
2023-01-26T11:10:38.772Z,1.29
2023-01-26T11:12:40.236Z,1.33
2023-01-26T11:14:41.694Z,1.37
2023-01-26T11:17:08.058Z,1.43
2023-01-26T11:19:15.561Z,1.47
2023-01-26T11:21:22.719Z,1.50
2023-01-26T11:23:37.663Z,1.56
2023-01-26T11:26:09.337Z,1.61
2023-01-26T11:28:41.244Z,1.65
2023-01-26T11:31:14.058Z,1.71
2023-01-26T11:33:48.997Z,1.76
2023-01-26T11:36:16.326Z,1.81
2023-01-26T11:38:39.217Z,1.82
2023-01-26T11:40:49.333Z,1.81
2023-01-26T11:43:21.837Z,1.85
2023-01-26T11:45:33.386Z,1.90
2023-01-26T11:48:01.689Z,1.92
2023-01-26T11:50:14.976Z,1.94
2023-01-26T11:53:11.632Z,1.99
2023-01-26T11:55:45.582Z,2.01
2023-01-26T11:58:20.572Z,2.05
2023-01-26T12:00:31.076Z,2.11
2023-01-26T12:02:36.536Z,2.15
2023-01-26T12:04:45.433Z,2.16
2023-01-26T12:06:49.120Z,2.17
2023-01-26T12:08:54.794Z,2.22
2023-01-26T12:11:22.321Z,2.25
2023-01-26T12:13:38.088Z,2.29
2023-01-26T12:15:47.326Z,2.30
2023-01-26T12:18:09.981Z,2.31
2023-01-26T12:20:45.485Z,2.32
2023-01-26T12:22:54.805Z,2.32
2023-01-26T12:25:28.680Z,2.32
2023-01-26T12:27:38.555Z,2.35
2023-01-26T12:29:55.071Z,2.39
2023-01-26T12:32:08.832Z,2.45
2023-01-26T12:34:13.411Z,2.52
2023-01-26T12:36:30.939Z,2.56
2023-01-26T12:39:09.568Z,2.62
2023-01-26T12:41:22.810Z,2.68
2023-01-26T12:43:47.515Z,2.74
2023-01-26T12:45:54.364Z,2.80
2023-01-26T12:48:36.368Z,2.87
2023-01-26T12:50:44.752Z,2.93
2023-01-26T12:52:53.436Z,2.98
2023-01-26T12:55:14.871Z,3.03
2023-01-26T12:57:21.822Z,3.07
2023-01-26T12:59:46.435Z,3.10
2023-01-26T13:01:50.267Z,3.14
2023-01-26T13:04:09.083Z,3.17
2023-01-26T13:06:10.439Z,3.22
2023-01-26T13:08:30.300Z,3.26
2023-01-26T13:10:46.054Z,3.32
2023-01-26T13:13:01.737Z,3.36
2023-01-26T13:15:06.547Z,3.40
2023-01-26T13:17:16.883Z,3.43
2023-01-26T13:19:52.624Z,3.47
2023-01-26T13:21:54.115Z,3.50
2023-01-26T13:23:55.707Z,3.53
2023-01-26T13:26:22.166Z,3.58
2023-01-26T13:28:28.098Z,3.62
2023-01-26T13:30:29.563Z,3.65
2023-01-26T13:32:31.097Z,3.69
2023-01-26T13:34:39.354Z,3.70
2023-01-26T13:36:45.393Z,3.73
2023-01-26T13:38:59.826Z,3.78
2023-01-26T13:41:07.194Z,3.81
2023-01-26T13:43:31.526Z,3.86
2023-01-26T13:45:39.551Z,3.89
2023-01-26T13:47:45.330Z,3.92
2023-01-26T13:49:46.799Z,3.93
2023-01-26T13:51:48.264Z,3.97
2023-01-26T13:54:07.707Z,3.99
2023-01-26T13:56:26.108Z,3.98
2023-01-26T13:58:28.052Z,3.96
2023-01-26T14:00:29.529Z,3.97
2023-01-26T14:02:34.643Z,3.99
2023-01-26T14:04:37.755Z,4.01
2023-01-26T14:06:39.499Z,4.03
2023-01-26T14:08:47.684Z,4.06
2023-01-26T14:10:49.526Z,4.08
2023-01-26T14:12:56.497Z,4.10
2023-01-26T14:15:01.744Z,4.13
2023-01-26T14:17:08.864Z,4.14
2023-01-26T14:19:17.563Z,4.13
2023-01-26T14:21:21.995Z,4.12
2023-01-26T14:23:26.922Z,4.13
2023-01-26T14:25:28.423Z,4.13
2023-01-26T14:27:41.668Z,4.13
2023-01-26T14:29:43.131Z,4.09
2023-01-26T14:31:48.161Z,4.13
2023-01-26T14:33:53.279Z,4.14
2023-01-26T14:36:01.464Z,4.17
2023-01-26T14:38:21.756Z,4.22
2023-01-26T14:40:24.890Z,4.27
2023-01-26T14:42:26.488Z,4.30
2023-01-26T14:44:27.987Z,4.35
2023-01-26T14:46:49.725Z,4.37
2023-01-26T14:48:59.217Z,4.40
2023-01-26T14:51:03.109Z,4.42
2023-01-26T14:53:06.678Z,4.38
2023-01-26T14:55:14.981Z,4.36
2023-01-26T14:57:20.358Z,4.41
2023-01-26T14:59:25.418Z,4.44
2023-01-26T15:01:27.983Z,4.43
2023-01-26T15:03:33.841Z,4.52
2023-01-26T15:05:38.734Z,4.52
2023-01-26T15:07:56.529Z,4.57
2023-01-26T15:09:58.144Z,4.59
2023-01-26T15:12:18.441Z,4.59
2023-01-26T15:14:48.283Z,4.62
2023-01-26T15:16:53.807Z,4.67
2023-01-26T15:19:06.040Z,4.68
2023-01-26T15:21:22.108Z,4.71
2023-01-26T15:23:33.151Z,4.70
2023-01-26T15:25:34.759Z,4.73
2023-01-26T15:27:36.971Z,4.72
2023-01-26T15:29:38.542Z,4.71
2023-01-26T15:31:42.819Z,4.69
2023-01-26T15:33:45.615Z,4.69
2023-01-26T15:35:57.782Z,4.67
2023-01-26T15:38:13.526Z,4.70
2023-01-26T15:40:15.573Z,4.70
2023-01-26T15:42:23.542Z,4.69
2023-01-26T15:44:25.028Z,4.70
2023-01-26T15:46:26.683Z,4.71
2023-01-26T15:48:31.702Z,4.71
2023-01-26T15:50:33.201Z,4.70
2023-01-26T15:52:34.654Z,4.72
2023-01-26T15:54:36.104Z,4.72
2023-01-26T15:56:37.891Z,4.69
2023-01-26T15:58:40.304Z,4.67
2023-01-26T16:00:41.901Z,4.65
2023-01-26T16:02:43.604Z,4.62
2023-01-26T16:04:45.595Z,4.64
2023-01-26T16:06:47.064Z,4.62
2023-01-26T16:08:48.890Z,4.57
2023-01-26T16:10:50.451Z,4.56
2023-01-26T16:12:52.526Z,4.56
2023-01-26T16:14:53.985Z,4.53
2023-01-26T16:16:55.427Z,4.52
2023-01-26T16:18:57.320Z,4.51
2023-01-26T16:20:58.855Z,4.52
2023-01-26T16:23:00.774Z,4.52
2023-01-26T16:25:02.226Z,4.51
2023-01-26T16:27:05.088Z,4.51
2023-01-26T16:29:06.551Z,4.53
2023-01-26T16:31:26.986Z,4.51
2023-01-26T16:33:28.468Z,4.47
2023-01-26T16:35:30.076Z,4.45
2023-01-26T16:37:31.511Z,4.45
2023-01-26T16:39:32.982Z,4.47
2023-01-26T16:41:34.484Z,4.47
2023-01-26T16:43:40.549Z,4.47
2023-01-26T16:45:41.999Z,4.46
2023-01-26T16:47:43.829Z,4.46
2023-01-26T16:49:45.895Z,4.44
2023-01-26T16:51:47.405Z,4.43
2023-01-26T16:53:49.009Z,4.44
2023-01-26T16:55:50.510Z,4.44
2023-01-26T16:57:51.959Z,4.43
2023-01-26T16:59:53.423Z,4.41
2023-01-26T17:01:55.093Z,4.40
2023-01-26T17:03:56.808Z,4.39
2023-01-26T17:05:58.585Z,4.38
2023-01-26T17:08:00.048Z,4.38
2023-01-26T17:10:01.514Z,4.38
2023-01-26T17:12:03.169Z,4.37
2023-01-26T17:14:04.644Z,4.34
2023-01-26T17:16:16.583Z,4.30
2023-01-26T17:18:18.096Z,4.26
2023-01-26T17:20:20.250Z,4.23
2023-01-26T17:22:21.778Z,4.22
2023-01-26T17:24:23.657Z,4.22
2023-01-26T17:26:25.227Z,4.23
2023-01-26T17:28:27.286Z,4.25
2023-01-26T17:30:28.991Z,4.23
2023-01-26T17:32:31.018Z,4.23
2023-01-26T17:34:32.477Z,4.23
2023-01-26T17:36:33.948Z,4.22
2023-01-26T17:38:35.978Z,4.22
2023-01-26T17:40:37.439Z,4.23
2023-01-26T17:42:39.039Z,4.24
2023-01-26T17:44:40.614Z,4.25
2023-01-26T17:46:42.067Z,4.25
2023-01-26T17:48:45.459Z,4.26
2023-01-26T17:50:48.792Z,4.25
2023-01-26T17:52:50.224Z,4.25
2023-01-26T17:54:52.026Z,4.26
2023-01-26T17:56:54.744Z,4.27
2023-01-26T17:58:56.799Z,4.27
2023-01-26T18:00:58.408Z,4.27
2023-01-26T18:02:59.905Z,4.27
2023-01-26T18:05:01.412Z,4.27
2023-01-26T18:07:03.144Z,4.29
2023-01-26T18:09:05.958Z,4.29
2023-01-26T18:11:12.804Z,4.29
2023-01-26T18:13:14.990Z,4.28
2023-01-26T18:15:16.904Z,4.29
2023-01-26T18:17:18.516Z,4.29
2023-01-26T18:19:20.066Z,4.28
2023-01-26T18:21:24.360Z,4.25
2023-01-26T18:23:25.825Z,4.25
2023-01-26T18:25:27.288Z,4.25
2023-01-26T18:27:28.736Z,4.26
2023-01-26T18:29:30.475Z,4.23
2023-01-26T18:31:40.590Z,4.23
2023-01-26T18:33:42.410Z,4.23
2023-01-26T18:35:44.105Z,4.22
2023-01-26T18:37:45.566Z,4.23
2023-01-26T18:39:47.235Z,4.23
2023-01-26T18:41:48.735Z,4.23
2023-01-26T18:43:52.042Z,4.22
2023-01-26T18:45:53.512Z,4.22
2023-01-26T18:47:55.023Z,4.21
2023-01-26T18:49:56.922Z,4.20
2023-01-26T18:51:58.459Z,4.20
2023-01-26T18:54:00.555Z,4.20
2023-01-26T18:56:04.951Z,4.20
2023-01-26T18:58:06.530Z,4.20
2023-01-26T19:00:09.108Z,4.19
2023-01-26T19:02:13.490Z,4.19
2023-01-26T19:04:17.922Z,4.18
2023-01-26T19:06:20.097Z,4.19
2023-01-26T19:08:24.632Z,4.18
2023-01-26T19:10:26.107Z,4.18
2023-01-26T19:12:27.565Z,4.16
2023-01-26T19:14:29.364Z,4.15
2023-01-26T19:16:31.771Z,4.14
2023-01-26T19:18:33.293Z,4.13
2023-01-26T19:20:34.971Z,4.14
2023-01-26T19:22:36.676Z,4.14
2023-01-26T19:24:38.253Z,4.12
2023-01-26T19:26:39.750Z,4.09
2023-01-26T19:28:41.989Z,4.10
2023-01-26T19:30:44.436Z,4.10
2023-01-26T19:33:08.493Z,4.07
2023-01-26T19:35:12.112Z,4.02
2023-01-26T19:37:15.589Z,4.00
2023-01-26T19:39:17.121Z,3.95
2023-01-26T19:41:19.931Z,3.91
2023-01-26T19:43:22.067Z,3.87
2023-01-26T19:45:23.612Z,3.84
2023-01-26T19:47:25.049Z,3.82
2023-01-26T19:49:26.535Z,3.81
2023-01-26T19:51:29.298Z,3.80
2023-01-26T19:53:32.991Z,3.79
2023-01-26T19:55:34.765Z,3.76
2023-01-26T19:57:36.322Z,3.73
2023-01-26T19:59:37.755Z,3.71
2023-01-26T20:01:39.324Z,3.69
2023-01-26T20:03:41.060Z,3.69
2023-01-26T20:05:42.486Z,3.67
2023-01-26T20:07:44.388Z,3.68
2023-01-26T20:09:46.133Z,3.68
2023-01-26T20:11:49.038Z,3.70
2023-01-26T20:13:57.759Z,3.71
2023-01-26T20:15:59.411Z,3.71
2023-01-26T20:18:02.202Z,3.72
2023-01-26T20:20:04.146Z,3.72
2023-01-26T20:22:05.697Z,3.73
2023-01-26T20:24:12.285Z,3.73
2023-01-26T20:26:14.527Z,3.75
2023-01-26T20:28:16.099Z,3.74
2023-01-26T20:30:18.408Z,3.76
2023-01-26T20:32:19.876Z,3.77
2023-01-26T20:34:21.986Z,3.76
2023-01-26T20:36:27.263Z,3.76
2023-01-26T20:38:28.863Z,3.74
2023-01-26T20:40:30.590Z,3.76
2023-01-26T20:42:32.186Z,3.76
2023-01-26T20:44:33.704Z,3.77
2023-01-26T20:46:38.169Z,3.77
2023-01-26T20:48:40.190Z,3.78
2023-01-26T20:50:41.777Z,3.76
2023-01-26T20:52:43.812Z,3.76
2023-01-26T20:54:45.794Z,3.76
2023-01-26T20:56:48.983Z,3.76
2023-01-26T20:58:53.025Z,3.77
2023-01-26T21:00:54.580Z,3.76
2023-01-26T21:02:56.069Z,3.76
2023-01-26T21:04:57.504Z,3.77
2023-01-26T21:06:59.105Z,3.75
2023-01-26T21:09:00.782Z,3.76
2023-01-26T21:11:03.294Z,3.75
2023-01-26T21:13:04.781Z,3.75
2023-01-26T21:15:06.937Z,3.74
2023-01-26T21:17:08.553Z,3.73
2023-01-26T21:19:10.041Z,3.73
2023-01-26T21:21:17.474Z,3.72
2023-01-26T21:23:18.968Z,3.70
2023-01-26T21:25:20.609Z,3.70
2023-01-26T21:27:22.064Z,3.69
2023-01-26T21:29:23.644Z,3.69
2023-01-26T21:31:26.832Z,3.67
2023-01-26T21:33:32.801Z,3.67
2023-01-26T21:35:34.261Z,3.68
2023-01-26T21:37:35.727Z,3.68
2023-01-26T21:39:37.201Z,3.67
2023-01-26T21:41:56.740Z,3.68
2023-01-26T21:44:16.780Z,3.69
2023-01-26T21:46:18.209Z,3.69
2023-01-26T21:48:28.319Z,3.69
2023-01-26T21:50:49.740Z,3.68
2023-01-26T21:53:00.283Z,3.69
2023-01-26T21:55:01.809Z,3.68
2023-01-26T21:57:25.190Z,3.66
2023-01-26T21:59:26.796Z,3.65
2023-01-26T22:01:33.556Z,3.66
2023-01-26T22:03:35.811Z,3.64
2023-01-26T22:05:37.836Z,3.63
2023-01-26T22:07:39.479Z,3.65
2023-01-26T22:09:41.244Z,3.65
2023-01-26T22:11:43.166Z,3.65
2023-01-26T22:13:44.717Z,3.63
2023-01-26T22:15:46.184Z,3.64
2023-01-26T22:17:47.626Z,3.62
2023-01-26T22:19:49.089Z,3.62
2023-01-26T22:21:50.564Z,3.60
2023-01-26T22:23:53.609Z,3.59
2023-01-26T22:25:55.062Z,3.58
2023-01-26T22:27:56.525Z,3.58
2023-01-26T22:29:58.035Z,3.58
2023-01-26T22:31:59.842Z,3.58
2023-01-26T22:34:01.437Z,3.57
2023-01-26T22:36:05.737Z,3.57
2023-01-26T22:38:07.251Z,3.59
2023-01-26T22:40:09.489Z,3.59
2023-01-26T22:42:10.968Z,3.58
2023-01-26T22:44:12.474Z,3.59
2023-01-26T22:46:14.697Z,3.60
2023-01-26T22:48:17.040Z,3.60
2023-01-26T22:50:18.533Z,3.62
2023-01-26T22:52:19.974Z,3.63
2023-01-26T22:54:21.482Z,3.63
2023-01-26T22:56:23.372Z,3.64
2023-01-26T22:58:24.840Z,3.63
2023-01-26T23:00:26.397Z,3.64
2023-01-26T23:02:27.858Z,3.63
2023-01-26T23:04:29.409Z,3.64
2023-01-26T23:06:31.098Z,3.64
2023-01-26T23:08:33.423Z,3.66
2023-01-26T23:10:34.952Z,3.65
2023-01-26T23:12:36.452Z,3.65
2023-01-26T23:14:37.914Z,3.67
2023-01-26T23:16:39.412Z,3.68
2023-01-26T23:18:41.716Z,3.68
2023-01-26T23:20:43.169Z,3.66
2023-01-26T23:22:45.198Z,3.66
2023-01-26T23:25:06.656Z,3.68
2023-01-26T23:27:08.097Z,3.68
2023-01-26T23:29:09.648Z,3.72
2023-01-26T23:31:12.894Z,3.72
2023-01-26T23:33:15.535Z,3.73
2023-01-26T23:35:17.201Z,3.73
2023-01-26T23:37:18.656Z,3.74
2023-01-26T23:39:20.083Z,3.73
2023-01-26T23:41:21.559Z,3.73
2023-01-26T23:43:23.664Z,3.72
2023-01-26T23:45:25.178Z,3.73
2023-01-26T23:47:26.707Z,3.76
2023-01-26T23:49:28.236Z,3.77
2023-01-26T23:51:29.702Z,3.78
2023-01-26T23:53:31.890Z,3.76
2023-01-26T23:55:34.090Z,3.78
2023-01-26T23:57:36.286Z,3.79
2023-01-26T23:59:37.759Z,3.81
